Terminal Aerodrome Forecast
Issued by NWS

Home | Current Version | Previous Version | Text Only | Print | Product List | Glossary On
Versions: 1 2 3 4 5 6 7 8 9 10 11 12 13 14 15 16 17 18 19 20 21 22 23 24 25 26 27
000
FTUS41 KCTP 240323 AAB
TAFLNS
TAF AMD
KLNS 240323Z 2403/2424 15015G30KT P6SM VCSH BKN025 OVC050
      WS020/16045KT
     FM240500 15016G26KT P6SM -SHRA OVC020 WS020/16050KT
      TEMPO 2407/2410 2SM +TSRA OVC015CB
     FM241100 22010G20KT 4SM -RA OVC008
     FM241200 26010KT 4SM -SHRA BR OVC012
     FM241700 22009KT P6SM BKN035=

USA.gov is the U.S. government's official web portal to all federal, state and local government web resources and services.